Terminal Aerodrome Forecast
Issued by NWS Sioux Falls, SD

Home | Current Version | Previous Version | Text Only | Print | Product List | Glossary On
Versions: 1 2 3 4 5 6 7 8 9 10 11 12 13
251
FTUS43 KFSD 041142
TAFFSD
TAF
KFSD 041142Z 0412/0512 20007KT 6SM BR OVC006
     FM041300 24007KT P6SM BKN015
     FM041400 26007KT P6SM SCT015 BKN040
     FM041600 26007KT P6SM SCT150
     FM050100 19005KT P6SM BKN200=

USA.gov is the U.S. government's official web portal to all federal, state and local government web resources and services.